Time;durP1;ratioP1;P1;durP2;ratioP2;P2;SDS_P1;SDS_P2;PMS_P1;PMS_P2;Temp;Humidity;BMP_temperature;BMP_pressure;BME280_temperature;BME280_humidity;BME280_pressure;Samples;Min_cycle;Max_cycle;Signal;HPM_P1;HPM_P2
2021/04/26 00:00:01;;;;;;;;;;;;;;;6.03;51.94;99332.81;5087061;28;20075;-80
2021/04/26 00:05:50;;;;;;;6.47;2.20;;;;;;;6.11;50.80;99342.88;4933098;28;20059;-80
2021/04/26 00:08:16;;;;;;;5.40;1.83;;;;;;;6.11;51.03;99342.00;5008780;28;20300;-80
2021/04/26 00:10:42;;;;;;;5.63;1.83;;;;;;;6.11;51.18;99344.72;5061982;28;20040;-80
2021/04/26 00:13:09;;;;;;;4.82;2.30;;;;;;;6.01;51.45;99326.75;5098387;28;20048;-80
2021/04/26 00:15:36;;;;;;;6.07;1.88;;;;;;;5.96;51.73;99320.94;5084498;28;20811;-80
2021/04/26 00:18:28;;;;;;;6.43;2.17;;;;;;;6.00;51.84;99326.88;5084250;28;20045;-80
2021/04/26 00:20:54;;;;;;;6.63;1.77;;;;;;;5.81;53.01;99330.50;5077053;28;20048;-80
2021/04/26 00:23:21;;;;;;;3.63;2.13;;;;;;;5.75;52.46;99317.63;5086312;28;20055;-80
2021/04/26 00:25:55;;;;;;;6.97;2.53;;;;;;;5.78;52.17;99307.41;5077010;28;20512;-80
2021/04/26 00:28:24;;;;;;;6.95;2.08;;;;;;;5.72;53.38;99309.84;5080289;28;20040;-80
2021/04/26 00:30:51;;;;;;;7.43;2.25;;;;;;;5.39;53.36;99301.31;5074265;28;20502;-80
2021/04/26 00:33:17;;;;;;;3.33;1.60;;;;;;;5.42;53.64;99301.03;5081651;28;20048;-79
2021/04/26 00:35:44;;;;;;;6.15;2.30;;;;;;;5.42;53.60;99307.28;5090374;28;20048;-80
2021/04/26 00:38:10;;;;;;;5.85;2.95;;;;;;;5.48;54.08;99298.59;5091756;28;20048;-79
2021/04/26 00:40:36;;;;;;;4.72;2.00;;;;;;;5.14;54.76;99287.53;5083944;28;20056;-79
2021/04/26 00:43:02;;;;;;;6.55;2.47;;;;;;;5.12;55.01;99278.75;5083449;28;20048;-80
2021/04/26 00:45:29;;;;;;;6.13;2.30;;;;;;;5.30;54.62;99287.75;5086924;28;20495;-80
2021/04/26 00:47:56;;;;;;;3.20;2.33;;;;;;;5.33;54.72;99283.91;5073547;28;20054;-80
2021/04/26 00:50:40;;;;;;;6.10;2.47;;;;;;;5.24;55.09;99261.38;5077563;28;20051;-80
2021/04/26 00:54:14;;;;;;;4.32;2.30;;;;;;;5.14;55.06;99269.50;5085329;28;20059;-80
2021/04/26 00:56:47;;;;;;;3.60;2.80;;;;;;;5.15;55.32;99278.44;5090190;28;20463;-80
2021/04/26 00:59:14;;;;;;;5.95;2.40;;;;;;;5.22;55.46;99279.53;5073958;28;20040;-80
2021/04/26 01:22:04;;;;;;;3.40;2.30;;;;;;;5.01;56.64;99236.63;4804990;29;20057;-81
2021/04/26 01:35:07;;;;;;;5.35;2.72;;;;;;;4.81;57.15;99175.75;4891601;29;20884;-81
2021/04/26 02:01:47;;;;;;;6.57;3.42;;;;;;;4.96;56.73;99190.44;4985100;28;20057;-80
2021/04/26 02:14:28;;;;;;;5.47;3.28;;;;;;;4.42;58.68;99214.41;4903227;29;20155;-81
2021/04/26 02:16:55;;;;;;;5.32;3.53;;;;;;;4.36;58.12;99212.28;4934999;29;20059;-80
2021/04/26 02:19:21;;;;;;;6.38;3.47;;;;;;;4.42;58.29;99212.56;5041458;28;20051;-79
2021/04/26 02:29:00;;;;;;;6.60;3.33;;;;;;;4.56;57.55;99216.66;4997211;28;20506;-81
2021/04/26 02:31:32;;;;;;;6.97;2.97;;;;;;;4.37;58.46;99211.31;5051603;28;20179;-79
2021/04/26 02:34:11;;;;;;;5.90;3.42;;;;;;;4.25;58.93;99199.84;5051704;28;20056;-79
2021/04/26 02:36:44;;;;;;;6.85;3.15;;;;;;;4.27;59.36;99221.25;5090220;28;20464;-79
2021/04/26 02:39:13;;;;;;;10.13;4.07;;;;;;;4.08;59.78;99207.66;5100135;28;20047;-79
2021/04/26 02:41:42;;;;;;;6.63;3.45;;;;;;;4.07;59.23;99216.69;5105418;28;20048;-79
2021/04/26 02:44:15;;;;;;;7.25;3.80;;;;;;;3.97;59.81;99215.00;5094473;28;20066;-79
2021/04/26 02:46:44;;;;;;;5.82;3.22;;;;;;;3.98;59.75;99219.41;5100375;28;20071;-80
2021/04/26 02:49:11;;;;;;;7.97;3.83;;;;;;;3.80;60.55;99211.19;5099969;28;20059;-80
2021/04/26 02:51:38;;;;;;;8.25;3.58;;;;;;;3.83;60.40;99222.50;5115125;28;20051;-80
2021/04/26 02:54:06;;;;;;;5.25;3.55;;;;;;;3.64;60.09;99196.44;5107915;28;20093;-79
2021/04/26 02:56:36;;;;;;;11.63;3.55;;;;;;;3.77;60.22;99227.59;5094686;28;20040;-80
2021/04/26 02:59:06;;;;;;;7.80;3.40;;;;;;;3.83;59.26;99213.59;5094575;28;20557;-80
2021/04/26 03:01:33;;;;;;;8.25;3.88;;;;;;;3.82;58.58;99210.03;5092807;28;20549;-78
2021/04/26 03:04:01;;;;;;;10.43;3.40;;;;;;;3.79;58.96;99218.38;5094204;28;20117;-79
2021/04/26 03:06:28;;;;;;;8.30;4.22;;;;;;;3.84;58.69;99216.16;5094056;28;20040;-80
2021/04/26 03:08:57;;;;;;;6.38;3.20;;;;;;;3.83;58.45;99214.44;5103046;28;20055;-80
2021/04/26 03:11:25;;;;;;;8.90;3.65;;;;;;;3.78;58.32;99202.41;5108831;28;20075;-80
2021/04/26 03:13:52;;;;;;;6.82;3.15;;;;;;;3.86;58.19;99200.72;5094118;28;20127;-80
2021/04/26 03:16:19;;;;;;;7.30;3.78;;;;;;;3.79;58.18;99204.94;5093575;28;20121;-81
2021/04/26 03:18:45;;;;;;;13.77;3.90;;;;;;;3.69;58.24;99190.66;5094358;28;20595;-80
2021/04/26 03:21:14;;;;;;;19.50;3.45;;;;;;;3.79;57.59;99193.34;5094201;28;20136;-80
2021/04/26 03:23:42;;;;;;;8.23;3.90;;;;;;;3.74;57.84;99195.63;5094248;28;20563;-80
2021/04/26 03:26:09;;;;;;;4.72;3.30;;;;;;;3.67;58.57;99184.56;5103581;28;20056;-80
2021/04/26 03:28:39;;;;;;;7.88;3.92;;;;;;;3.69;57.94;99187.97;5103844;28;20072;-80
2021/04/26 03:31:07;;;;;;;10.98;4.00;;;;;;;3.70;58.28;99189.66;5093884;28;20071;-80
2021/04/26 03:33:34;;;;;;;6.60;3.13;;;;;;;3.57;57.73;99152.31;5094479;28;20059;-80
2021/04/26 03:36:02;;;;;;;6.20;3.55;;;;;;;3.57;58.21;99165.75;5093289;28;20101;-80
2021/04/26 03:38:30;;;;;;;6.38;3.55;;;;;;;3.59;58.72;99176.34;5093863;28;20059;-80
2021/04/26 03:40:57;;;;;;;4.82;3.33;;;;;;;3.48;59.63;99175.50;5094107;28;20047;-80
2021/04/26 03:43:25;;;;;;;6.55;4.13;;;;;;;3.47;58.70;99171.09;5094059;28;20101;-80
2021/04/26 03:45:55;;;;;;;9.88;3.55;;;;;;;3.56;58.69;99176.63;5092906;28;20052;-81
2021/04/26 03:48:21;;;;;;;;;;;;;;;3.50;59.01;99169.97;5102810;28;20055;-81
2021/04/26 03:50:47;;;;;;;6.53;3.10;;;;;;;3.44;58.79;99168.69;5093467;28;19923;-81
2021/04/26 03:53:13;;;;;;;7.05;3.58;;;;;;;3.33;59.85;99166.97;5076835;28;20051;-81
2021/04/26 03:55:40;;;;;;;7.38;3.53;;;;;;;3.39;58.31;99167.41;5092898;28;20400;-81
2021/04/26 03:58:07;;;;;;;10.75;3.50;;;;;;;3.40;58.82;99177.16;5093581;28;20109;-80
2021/04/26 04:00:34;;;;;;;6.03;3.70;;;;;;;3.32;58.57;99172.50;5093448;28;20055;-81
2021/04/26 04:03:05;;;;;;;6.35;3.35;;;;;;;3.25;59.15;99165.97;5093432;28;20515;-80
2021/04/26 04:05:32;;;;;;;8.40;4.40;;;;;;;3.23;59.08;99170.63;5092651;28;20150;-81
2021/04/26 04:07:58;;;;;;;12.30;4.20;;;;;;;3.31;59.00;99178.84;5093105;28;20051;-80
2021/04/26 04:10:24;;;;;;;5.45;3.20;;;;;;;3.16;60.29;99168.50;5093545;28;20105;-80
2021/04/26 04:12:51;;;;;;;7.70;3.55;;;;;;;3.16;59.83;99173.88;5091131;28;20067;-80
2021/04/26 04:15:18;;;;;;;5.57;3.45;;;;;;;3.02;60.66;99168.88;5092624;28;20055;-80
2021/04/26 04:17:44;;;;;;;7.63;3.92;;;;;;;2.90;60.73;99180.72;5081015;28;20468;-79
2021/04/26 04:20:17;;;;;;;10.43;3.58;;;;;;;2.74;62.28;99176.69;5091879;28;20055;-81
2021/04/26 04:22:43;;;;;;;6.50;3.55;;;;;;;2.45;61.54;99155.06;5080161;28;20044;-80
2021/04/26 04:25:11;;;;;;;6.40;3.15;;;;;;;2.61;61.18;99171.53;5092373;28;20052;-81
2021/04/26 04:27:44;;;;;;;6.13;3.40;;;;;;;2.63;60.42;99169.59;5092930;28;20054;-83
2021/04/26 04:30:14;;;;;;;4.80;3.40;;;;;;;2.70;61.03;99175.25;5093439;28;20055;-83
2021/04/26 04:32:41;;;;;;;6.93;4.18;;;;;;;2.77;61.01;99179.13;5093754;28;20047;-80
2021/04/26 04:35:08;;;;;;;5.90;3.40;;;;;;;2.86;60.27;99188.19;5101245;28;20430;-81
2021/04/26 04:37:38;;;;;;;7.27;3.23;;;;;;;2.71;60.38;99178.78;5098699;28;20059;-80
2021/04/26 04:40:06;;;;;;;8.10;3.63;;;;;;;2.64;60.46;99173.13;5095833;28;20112;-81
2021/04/26 04:42:32;;;;;;;9.45;4.05;;;;;;;2.80;60.32;99184.22;5095791;28;20055;-80
2021/04/26 04:44:58;;;;;;;7.70;3.73;;;;;;;2.73;60.39;99180.34;5099269;28;20044;-81
2021/04/26 04:47:25;;;;;;;6.20;3.87;;;;;;;2.69;60.95;99181.59;5098814;28;20056;-81
2021/04/26 04:49:52;;;;;;;7.17;3.40;;;;;;;2.57;62.31;99172.78;5089895;28;20044;-81
2021/04/26 04:52:18;;;;;;;8.50;4.10;;;;;;;2.72;62.88;99188.53;5089994;28;20036;-83
2021/04/26 04:54:53;;;;;;;10.70;4.37;;;;;;;2.69;63.12;99157.44;5098330;28;20056;-82
2021/04/26 04:57:21;;;;;;;7.47;4.10;;;;;;;2.68;63.33;99171.88;5089511;28;20047;-82
2021/04/26 04:59:48;;;;;;;8.33;4.13;;;;;;;2.69;63.11;99164.66;5089928;28;20075;-82
2021/04/26 05:02:14;;;;;;;8.47;4.30;;;;;;;2.77;62.79;99179.13;5090369;28;20056;-82
2021/04/26 05:04:45;;;;;;;7.47;3.90;;;;;;;2.61;62.72;99151.91;5099506;28;20499;-83
2021/04/26 05:07:14;;;;;;;6.47;3.50;;;;;;;2.83;62.73;99178.56;5093078;28;20052;-83
2021/04/26 05:09:40;;;;;;;10.50;4.00;;;;;;;2.87;62.24;99163.03;5091295;28;20101;-83
2021/04/26 05:12:23;;;;;;;10.05;4.18;;;;;;;2.84;62.37;99160.59;5094937;28;20044;-83
2021/04/26 05:14:58;;;;;;;7.47;4.60;;;;;;;2.91;62.55;99180.56;5092089;28;20040;-83
2021/04/26 05:17:34;;;;;;;11.63;4.10;;;;;;;2.81;62.13;99150.97;5093454;28;20048;-82
2021/04/26 05:20:18;;;;;;;7.77;3.57;;;;;;;2.84;62.63;99157.94;5099387;28;20048;-82
2021/04/26 05:22:45;;;;;;;11.30;4.43;;;;;;;3.11;61.80;99146.56;5099692;28;20055;-82
2021/04/26 05:25:21;;;;;;;7.40;4.13;;;;;;;3.47;60.98;99163.03;5094431;28;20488;-82
2021/04/26 05:28:08;;;;;;;8.20;4.05;;;;;;;3.85;59.68;99158.69;5095171;28;20147;-83
2021/04/26 05:30:49;;;;;;;5.57;3.50;;;;;;;4.16;58.63;99139.66;5097831;28;20140;-82
2021/04/26 05:33:22;;;;;;;;;;;;;;;5.00;57.71;99162.22;5095369;28;20496;-82
2021/04/26 05:36:03;;;;;;;6.40;3.90;;;;;;;5.41;55.47;99165.38;5101763;28;20304;-83
2021/04/26 05:38:46;;;;;;;7.07;3.78;;;;;;;5.63;53.81;99169.50;5108184;28;20075;-83
2021/04/26 05:41:15;;;;;;;10.43;3.65;;;;;;;5.92;52.81;99160.31;5091606;28;20401;-83
2021/04/26 05:43:41;;;;;;;12.25;4.35;;;;;;;6.44;51.30;99169.53;5108746;28;20048;-83
2021/04/26 05:46:08;;;;;;;5.55;3.75;;;;;;;6.45;50.73;99184.72;5104318;28;20058;-83
2021/04/26 05:48:34;;;;;;;11.80;3.28;;;;;;;6.93;49.78;99174.38;5108159;28;20476;-83
2021/04/26 05:51:13;;;;;;;8.52;3.80;;;;;;;7.24;48.59;99143.09;5100009;28;20458;-83
2021/04/26 05:53:39;;;;;;;7.68;2.97;;;;;;;7.28;48.37;99131.94;5101216;28;20047;-82
2021/04/26 05:56:07;;;;;;;7.68;3.15;;;;;;;7.63;47.27;99147.06;5095673;28;20063;-83
2021/04/26 05:58:47;;;;;;;12.35;3.97;;;;;;;7.46;46.74;99154.28;5093982;28;20175;-83
2021/04/26 06:01:18;;;;;;;10.20;3.63;;;;;;;7.30;47.80;99152.41;5096065;28;20484;-82
2021/04/26 06:03:45;;;;;;;6.28;3.75;;;;;;;7.55;47.28;99150.59;5100552;28;20048;-83
2021/04/26 06:06:39;;;;;;;7.95;3.58;;;;;;;7.88;46.60;99141.69;5097741;28;20075;-81
2021/04/26 06:09:25;;;;;;;7.15;3.08;;;;;;;8.07;46.29;99162.16;5095136;28;20044;-84
2021/04/26 06:11:51;;;;;;;8.45;3.20;;;;;;;8.31;46.21;99156.75;5104856;28;20345;-81
2021/04/26 06:14:17;;;;;;;6.03;3.20;;;;;;;8.60;44.96;99170.81;5103831;28;20078;-81
2021/04/26 06:16:43;;;;;;;10.32;4.10;;;;;;;8.35;45.35;99165.38;5103068;28;20108;-81
2021/04/26 06:19:10;;;;;;;11.02;3.97;;;;;;;7.94;45.75;99152.66;5094077;28;20054;-81
2021/04/26 06:21:37;;;;;;;9.88;3.50;;;;;;;8.61;44.77;99151.66;5100736;28;20055;-81
2021/04/26 06:24:04;;;;;;;8.88;3.83;;;;;;;8.49;45.69;99140.34;5096847;28;20044;-81
2021/04/26 06:26:31;;;;;;;7.45;3.88;;;;;;;9.10;43.51;99153.38;5094945;28;20078;-82
2021/04/26 06:28:57;;;;;;;9.90;3.13;;;;;;;9.39;42.97;99144.59;5083055;28;20048;-81
2021/04/26 06:31:23;;;;;;;7.72;3.40;;;;;;;9.61;41.65;99150.22;5095041;28;20496;-82
2021/04/26 06:33:50;;;;;;;6.45;3.25;;;;;;;10.06;41.53;99169.44;5100798;28;20487;-82
2021/04/26 06:36:16;;;;;;;5.60;3.38;;;;;;;9.86;42.34;99177.22;5093276;28;20044;-82
2021/04/26 06:38:50;;;;;;;5.75;3.05;;;;;;;10.14;41.44;99150.34;5104335;28;20047;-81
2021/04/26 06:41:17;;;;;;;10.90;3.28;;;;;;;9.95;39.99;99154.41;5095424;28;20046;-80
2021/04/26 06:43:43;;;;;;;8.10;3.38;;;;;;;9.23;41.52;99158.25;5100772;28;21696;-79
2021/04/26 06:46:12;;;;;;;8.63;3.72;;;;;;;9.17;43.27;99176.06;5094227;28;20052;-81
2021/04/26 06:48:38;;;;;;;10.33;3.03;;;;;;;9.51;41.43;99166.72;5094287;28;20044;-81
2021/04/26 06:51:05;;;;;;;8.20;3.20;;;;;;;9.98;39.95;99178.50;5094245;28;20044;-81
2021/04/26 06:53:31;;;;;;;9.25;3.60;;;;;;;9.56;39.85;99152.66;5090202;28;20498;-80
2021/04/26 06:56:02;;;;;;;9.40;3.65;;;;;;;9.93;39.72;99167.31;5093706;28;20051;-82
2021/04/26 06:58:28;;;;;;;;;;;;;;;9.95;40.03;99168.00;5103430;28;20610;-80
2021/04/26 07:00:55;;;;;;;7.90;3.25;;;;;;;10.19;39.29;99157.94;5103242;28;19972;-81
2021/04/26 07:03:21;;;;;;;6.57;3.55;;;;;;;10.24;40.47;99158.25;5096629;28;20109;-80
2021/04/26 07:05:47;;;;;;;6.38;3.53;;;;;;;10.02;40.28;99168.94;5091894;28;20571;-81
2021/04/26 07:08:14;;;;;;;4.65;3.08;;;;;;;10.09;39.54;99134.59;5096689;28;20048;-81
2021/04/26 07:10:49;;;;;;;6.25;3.53;;;;;;;10.37;39.27;99155.81;5094268;28;20101;-81
2021/04/26 07:13:16;;;;;;;8.38;3.63;;;;;;;9.87;39.86;99158.00;5092847;28;20075;-81
2021/04/26 07:15:42;;;;;;;6.50;3.20;;;;;;;9.96;39.48;99144.41;5081464;28;20070;-81
2021/04/26 07:18:09;;;;;;;10.98;4.00;;;;;;;9.70;39.96;99154.56;5087321;28;20093;-82
2021/04/26 07:20:35;;;;;;;8.10;3.50;;;;;;;9.91;39.99;99148.50;5092223;28;20075;-82
2021/04/26 07:23:01;;;;;;;9.07;3.35;;;;;;;10.06;40.19;99124.09;5098458;28;20066;-83
2021/04/26 07:25:30;;;;;;;8.25;3.95;;;;;;;10.23;39.97;99138.38;5100563;28;20080;-83
2021/04/26 07:27:56;;;;;;;8.27;3.35;;;;;;;10.34;40.78;99139.00;5097262;28;20055;-82
2021/04/26 07:30:24;;;;;;;7.10;3.78;;;;;;;10.00;39.91;99127.56;5105238;28;20488;-82
2021/04/26 07:32:51;;;;;;;6.85;3.45;;;;;;;10.45;40.22;99123.09;5102849;28;20526;-82
2021/04/26 07:35:20;;;;;;;5.85;3.10;;;;;;;10.61;39.09;99129.38;5096975;28;20535;-82
2021/04/26 07:37:47;;;;;;;7.93;3.63;;;;;;;10.49;39.51;99107.25;5101397;28;20053;-81
2021/04/26 07:40:15;;;;;;;10.95;3.85;;;;;;;10.47;39.72;99117.47;5101196;28;20051;-81
2021/04/26 07:42:43;;;;;;;5.75;3.30;;;;;;;10.87;39.25;99125.38;5088516;28;20053;-83
2021/04/26 07:45:11;;;;;;;7.03;3.33;;;;;;;10.60;38.78;99104.09;5103469;28;20044;-81
2021/04/26 07:47:38;;;;;;;10.50;3.90;;;;;;;10.50;39.31;99116.28;5095165;28;20052;-81
2021/04/26 07:50:06;;;;;;;11.60;3.63;;;;;;;10.55;38.62;99094.81;5094660;28;20048;-80
2021/04/26 07:52:36;;;;;;;8.45;3.63;;;;;;;10.75;39.22;99125.03;5094025;28;20593;-82
2021/04/26 07:55:03;;;;;;;8.05;3.97;;;;;;;10.34;38.89;99106.41;5093924;28;20507;-81
2021/04/26 07:57:31;;;;;;;8.10;3.45;;;;;;;10.71;40.03;99101.94;5093459;28;20050;-81
2021/04/26 07:59:57;;;;;;;8.82;3.53;;;;;;;11.04;39.82;99096.94;5103590;28;20047;-81
2021/04/26 08:02:23;;;;;;;9.25;3.22;;;;;;;11.33;39.23;99109.66;5097968;28;20077;-81
2021/04/26 08:04:51;;;;;;;8.52;3.55;;;;;;;11.68;39.76;99109.84;5101168;28;20052;-81
2021/04/26 08:07:17;;;;;;;5.38;3.70;;;;;;;11.45;37.17;99104.53;5098282;28;20039;-81
2021/04/26 08:09:44;;;;;;;9.77;3.92;;;;;;;10.88;38.61;99113.47;5104279;28;20055;-81
2021/04/26 08:12:10;;;;;;;8.30;3.88;;;;;;;10.97;38.73;99086.00;5099679;28;20044;-82
2021/04/26 08:14:37;;;;;;;7.82;3.92;;;;;;;11.04;38.54;99120.59;5098746;28;20055;-82
2021/04/26 08:17:03;;;;;;;4.97;3.53;;;;;;;11.34;38.81;99110.50;5090911;28;20503;-81
2021/04/26 08:19:29;;;;;;;7.75;3.00;;;;;;;11.46;40.31;99081.75;5099918;28;20094;-81
2021/04/26 08:21:56;;;;;;;6.88;3.30;;;;;;;11.50;38.04;99096.66;5099018;28;20051;-81
2021/04/26 08:24:23;;;;;;;11.50;3.47;;;;;;;11.58;37.48;99098.41;5091886;28;20052;-81
2021/04/26 08:26:50;;;;;;;6.63;3.67;;;;;;;11.59;37.75;99093.81;5095525;28;20492;-81
2021/04/26 08:29:20;;;;;;;11.00;3.40;;;;;;;11.50;37.48;99087.63;5087590;28;20469;-81
2021/04/26 08:31:49;;;;;;;7.70;3.97;;;;;;;11.44;38.77;99089.28;5094154;28;20127;-81
2021/04/26 08:34:20;;;;;;;8.25;3.47;;;;;;;11.72;38.70;99084.94;5087215;28;20067;-81
2021/04/26 08:36:46;;;;;;;9.93;3.15;;;;;;;11.54;38.90;99082.66;5090754;28;20048;-81
2021/04/26 08:39:15;;;;;;;10.57;3.53;;;;;;;11.42;38.73;99087.78;5091081;28;20392;-81
2021/04/26 08:41:42;;;;;;;7.15;4.00;;;;;;;11.37;37.96;99060.28;5091473;28;20097;-81
2021/04/26 08:44:14;;;;;;;9.60;3.20;;;;;;;11.54;38.58;99064.44;5090558;28;20082;-81
2021/04/26 08:46:43;;;;;;;9.38;3.20;;;;;;;11.86;38.12;99068.53;5087192;28;20459;-82
2021/04/26 08:49:15;;;;;;;8.25;3.63;;;;;;;11.98;37.53;99082.50;5090721;28;20045;-82
2021/04/26 08:51:42;;;;;;;8.23;3.33;;;;;;;12.05;38.74;99060.75;5090664;28;20070;-82
2021/04/26 08:54:11;;;;;;;12.05;4.30;;;;;;;12.28;41.45;99056.94;5088190;28;20345;-81
2021/04/26 08:56:38;;;;;;;8.35;3.03;;;;;;;12.86;39.02;99067.59;5089770;28;20048;-81
2021/04/26 08:59:05;;;;;;;5.32;3.20;;;;;;;12.72;36.51;99067.53;5089989;28;20048;-81
2021/04/26 09:01:34;;;;;;;13.18;3.55;;;;;;;12.65;37.20;99061.19;5089754;28;20546;-82
2021/04/26 09:04:08;;;;;;;11.88;4.18;;;;;;;12.41;35.75;99056.22;5089611;28;20097;-81
2021/04/26 09:06:59;;;;;;;7.22;3.38;;;;;;;12.69;38.08;99056.16;5090058;28;20040;-81
2021/04/26 09:09:46;;;;;;;4.75;3.65;;;;;;;12.95;35.67;99054.59;5078092;28;20081;-82
2021/04/26 09:12:15;;;;;;;5.35;3.10;;;;;;;12.88;37.35;99049.13;5088089;28;20161;-81
2021/04/26 09:14:48;;;;;;;8.10;3.42;;;;;;;12.69;37.17;99037.06;5086779;28;20056;-81
2021/04/26 09:17:32;;;;;;;4.93;3.33;;;;;;;12.67;35.55;99061.81;5089671;28;20093;-81
2021/04/26 09:20:03;;;;;;;10.50;3.22;;;;;;;12.78;37.91;99054.97;5089578;28;20040;-81
2021/04/26 09:22:44;;;;;;;5.55;3.05;;;;;;;12.84;35.82;99047.84;5091404;28;20044;-81
2021/04/26 09:25:22;;;;;;;7.72;3.50;;;;;;;12.71;35.97;99041.28;5088836;28;20345;-81
2021/04/26 09:27:59;;;;;;;8.55;3.28;;;;;;;12.86;36.08;99048.50;5089594;28;20492;-81
2021/04/26 09:30:51;;;;;;;6.68;3.28;;;;;;;13.15;36.52;99041.06;5084249;28;20397;-81
2021/04/26 09:33:27;;;;;;;3.83;2.80;;;;;;;13.50;36.08;99040.97;5078996;28;20326;-81
2021/04/26 09:35:59;;;;;;;7.22;3.70;;;;;;;13.40;37.34;99039.47;5088565;28;20075;-81
2021/04/26 09:38:26;;;;;;;7.55;3.70;;;;;;;13.03;35.87;99036.16;5081896;28;20146;-81
2021/04/26 09:41:11;;;;;;;9.82;3.75;;;;;;;13.32;34.84;99041.50;5089544;28;20052;-81
2021/04/26 09:43:40;;;;;;;6.35;3.03;;;;;;;13.07;35.16;99045.63;5090136;28;20067;-82
2021/04/26 09:46:07;;;;;;;9.07;3.40;;;;;;;12.99;36.01;99034.06;5089647;28;20048;-81
2021/04/26 09:48:35;;;;;;;4.05;2.90;;;;;;;12.92;35.67;99020.41;5089608;28;20284;-81
2021/04/26 09:51:03;;;;;;;6.93;3.30;;;;;;;13.52;39.24;99031.53;5089403;28;20051;-82
2021/04/26 09:53:44;;;;;;;8.38;3.47;;;;;;;13.35;35.54;99005.63;5081561;28;20051;-82
2021/04/26 09:56:12;;;;;;;6.93;3.25;;;;;;;13.47;36.02;99019.53;5088690;28;20048;-82
2021/04/26 09:58:41;;;;;;;7.63;3.33;;;;;;;13.33;35.62;99011.28;5086585;28;20048;-82
2021/04/26 10:01:12;;;;;;;10.93;3.40;;;;;;;13.77;37.23;99012.63;5092616;28;20123;-82
2021/04/26 10:03:39;;;;;;;6.10;3.35;;;;;;;13.65;33.93;98992.44;5090333;28;20067;-82
2021/04/26 10:06:05;;;;;;;6.15;3.92;;;;;;;13.62;34.95;98991.00;5089131;28;20052;-82
2021/04/26 10:08:32;;;;;;;11.27;2.75;;;;;;;13.83;36.46;99008.22;5089487;28;20113;-82
2021/04/26 10:11:01;;;;;;;3.38;2.80;;;;;;;14.00;35.38;98989.53;5091427;28;20440;-83
2021/04/26 10:13:27;;;;;;;5.82;2.97;;;;;;;14.06;34.07;98999.59;5091414;28;20040;-82
2021/04/26 10:15:56;;;;;;;5.93;3.42;;;;;;;14.24;32.66;98998.94;5092830;28;20043;-82
2021/04/26 10:18:30;;;;;;;6.07;2.97;;;;;;;14.39;33.00;99000.59;5090535;28;20396;-82
2021/04/26 10:20:59;;;;;;;7.38;3.00;;;;;;;14.16;32.81;98991.78;5092873;28;20044;-82
2021/04/26 10:24:15;;;;;;;6.18;2.80;;;;;;;14.41;33.66;98979.34;5091731;28;20093;-82
2021/04/26 10:26:53;;;;;;;6.40;2.85;;;;;;;14.51;32.71;98990.66;5081880;28;20050;-80
2021/04/26 10:29:25;;;;;;;4.35;2.80;;;;;;;14.52;33.21;98971.31;5092776;28;20454;-81
2021/04/26 10:32:11;;;;;;;6.45;3.50;;;;;;;14.78;34.56;98964.06;5091920;28;20074;-81
2021/04/26 10:35:08;;;;;;;6.50;3.00;;;;;;;14.68;33.07;98955.53;5091993;28;20052;-81
2021/04/26 10:37:35;;;;;;;8.07;2.97;;;;;;;15.07;32.84;98966.47;5091004;28;20055;-82
2021/04/26 10:40:06;;;;;;;8.35;2.92;;;;;;;14.98;31.22;98976.84;5101579;28;20130;-81
2021/04/26 10:42:37;;;;;;;7.05;3.25;;;;;;;15.01;30.52;98974.50;5092206;28;20268;-82
2021/04/26 10:45:05;;;;;;;7.55;2.70;;;;;;;14.99;31.01;98978.53;5086046;28;20408;-81
2021/04/26 10:47:36;;;;;;;5.65;3.00;;;;;;;14.89;31.16;98981.75;5091951;28;20490;-81
2021/04/26 10:50:34;;;;;;;7.47;3.20;;;;;;;14.82;32.10;98967.25;5092582;28;20059;-82
2021/04/26 10:53:04;;;;;;;6.18;3.08;;;;;;;15.00;31.50;98969.25;5089843;28;20054;-82
2021/04/26 10:55:51;;;;;;;5.03;2.75;;;;;;;15.29;31.80;98953.28;5091979;28;20101;-81
2021/04/26 10:58:31;;;;;;;6.45;2.90;;;;;;;15.19;30.72;98940.06;5091816;28;20052;-82
2021/04/26 11:00:58;;;;;;;8.68;3.40;;;;;;;15.41;31.29;98946.03;5088814;28;20052;-82
2021/04/26 11:03:49;;;;;;;6.47;2.88;;;;;;;15.61;30.84;98925.88;5095510;28;20105;-82
2021/04/26 11:06:27;;;;;;;7.40;2.78;;;;;;;15.54;29.42;98947.84;5090992;28;20411;-81
2021/04/26 11:11:45;;;;;;;4.82;3.65;;;;;;;15.39;29.63;98937.22;5087169;28;20548;-82
2021/04/26 11:14:21;;;;;;;5.35;3.05;;;;;;;15.62;27.92;98938.53;5090385;28;20048;-82
2021/04/26 11:17:11;;;;;;;4.88;2.65;;;;;;;15.24;27.91;98915.63;5090386;28;20109;-82
2021/04/26 11:20:12;;;;;;;7.38;3.58;;;;;;;15.31;28.51;98916.41;5092188;28;20309;-82
2021/04/26 11:22:42;;;;;;;5.90;2.90;;;;;;;15.48;29.82;98893.97;5089357;28;20052;-83
2021/04/26 11:25:11;;;;;;;6.00;3.38;;;;;;;15.57;30.54;98900.84;5090031;28;20649;-82
2021/04/26 11:27:40;;;;;;;6.35;3.25;;;;;;;15.34;30.29;98888.59;5090327;28;20048;-81
2021/04/26 11:30:17;;;;;;;5.40;2.75;;;;;;;15.72;30.09;98895.00;5091641;28;20531;-82
2021/04/26 11:33:16;;;;;;;5.45;2.67;;;;;;;15.66;28.79;98890.44;5093408;28;20044;-82
2021/04/26 11:36:14;;;;;;;5.90;2.78;;;;;;;16.05;30.11;98896.63;5090951;28;20135;-82
2021/04/26 11:38:43;;;;;;;7.65;3.03;;;;;;;15.58;28.04;98867.72;5091181;28;20109;-82
2021/04/26 11:41:12;;;;;;;6.53;2.75;;;;;;;15.80;27.46;98850.88;5084037;28;20507;-82
2021/04/26 11:44:00;;;;;;;9.95;3.08;;;;;;;16.09;28.19;98871.25;5092599;28;20590;-81
2021/04/26 11:46:30;;;;;;;8.07;2.83;;;;;;;16.12;27.82;98849.91;5087307;28;20044;-81
2021/04/26 11:49:18;;;;;;;4.97;2.95;;;;;;;16.40;27.05;98876.81;5092113;28;20071;-82
2021/04/26 11:51:48;;;;;;;5.88;3.20;;;;;;;16.16;26.12;98864.84;5089302;28;20131;-82
2021/04/26 11:54:17;;;;;;;4.50;2.28;;;;;;;16.01;28.34;98863.31;5088242;28;20422;-82
2021/04/26 11:57:21;;;;;;;5.07;2.80;;;;;;;16.20;28.60;98834.00;5097553;28;20044;-82
2021/04/26 11:59:49;;;;;;;5.25;2.80;;;;;;;15.96;26.87;98835.75;5095131;28;20135;-82
2021/04/26 12:02:26;;;;;;;6.88;2.80;;;;;;;16.32;26.00;98842.28;5093896;28;20052;-82
2021/04/26 12:04:52;;;;;;;5.18;3.30;;;;;;;15.97;27.04;98833.84;5090983;28;20459;-83
2021/04/26 12:07:42;;;;;;;9.13;2.42;;;;;;;16.34;29.46;98833.84;5092080;28;20518;-82
2021/04/26 12:10:14;;;;;;;6.80;3.20;;;;;;;16.50;27.51;98816.75;5091025;28;20044;-83
2021/04/26 12:12:56;;;;;;;7.53;2.75;;;;;;;16.70;27.72;98804.66;5091829;28;20048;-82
2021/04/26 12:15:39;;;;;;;9.48;2.92;;;;;;;16.76;26.13;98828.41;5109332;28;20047;-82
2021/04/26 12:18:49;;;;;;;4.32;2.50;;;;;;;16.22;26.21;98820.06;5092843;28;20052;-82
2021/04/26 12:21:15;;;;;;;8.35;3.45;;;;;;;16.58;26.64;98821.06;5089111;28;20065;-82
2021/04/26 12:23:46;;;;;;;4.55;2.90;;;;;;;16.73;27.49;98805.00;5091371;28;20592;-82
2021/04/26 12:26:13;;;;;;;6.55;3.55;;;;;;;16.96;27.47;98806.16;5091781;28;20063;-83
2021/04/26 12:29:14;;;;;;;8.60;2.83;;;;;;;17.14;25.96;98799.75;5092789;28;20113;-82
2021/04/26 12:31:43;;;;;;;7.65;2.92;;;;;;;17.02;26.39;98807.97;5094397;28;20496;-82
2021/04/26 12:34:10;;;;;;;7.50;3.20;;;;;;;17.03;26.47;98797.84;5093365;28;20040;-82
2021/04/26 12:36:42;;;;;;;7.47;3.20;;;;;;;16.96;24.88;98782.28;5094254;28;20052;-83
2021/04/26 12:39:14;;;;;;;7.95;4.72;;;;;;;16.42;26.24;98773.16;5084706;28;20468;-82
2021/04/26 12:41:43;;;;;;;4.22;2.80;;;;;;;16.45;26.05;98778.16;5099505;28;20488;-82
2021/04/26 12:44:15;;;;;;;7.88;3.17;;;;;;;16.51;25.57;98788.22;5092788;28;20051;-82
2021/04/26 12:46:49;;;;;;;4.30;2.58;;;;;;;16.32;24.79;98786.59;5091602;28;20504;-83
2021/04/26 12:49:51;;;;;;;7.22;3.38;;;;;;;16.28;25.07;98781.56;5094194;28;20048;-81
2021/04/26 12:52:19;;;;;;;6.35;2.53;;;;;;;16.58;23.57;98760.69;5090659;28;20051;-82
2021/04/26 12:55:11;;;;;;;8.02;3.22;;;;;;;16.56;23.32;98763.66;5090551;28;20078;-82
2021/04/26 12:57:37;;;;;;;3.45;2.60;;;;;;;16.87;23.79;98752.69;5092398;28;20080;-82
2021/04/26 13:00:08;;;;;;;7.60;2.72;;;;;;;16.93;23.85;98755.31;5090518;28;20411;-82
2021/04/26 13:02:35;;;;;;;3.58;2.33;;;;;;;17.45;24.51;98756.53;5091360;28;20098;-82
2021/04/26 13:05:01;;;;;;;11.88;3.40;;;;;;;17.20;24.30;98754.03;5091383;28;20109;-82
2021/04/26 13:07:28;;;;;;;4.93;2.35;;;;;;;17.27;23.86;98732.78;5097928;28;20052;-83
2021/04/26 13:10:04;;;;;;;6.65;2.90;;;;;;;17.28;24.84;98721.56;5091779;28;20048;-84
2021/04/26 13:12:35;;;;;;;6.15;2.97;;;;;;;17.54;24.49;98737.75;5087149;28;20131;-83
2021/04/26 13:15:01;;;;;;;4.57;3.17;;;;;;;17.45;23.71;98735.38;5091227;28;20056;-83